KHKA/HKA METAR and TAF weather

Enter ICAO airport designator
Station Type Date Time Source
KHKA METAR 2021/09/23 10:53 UTC NOAA

KHKA 231053Z AUTO 29003KT 10SM CLR 10/07 A3010 RMK AO2 SLP192 T01000072 $


Station Type Date Time Source
KHKA Decoded METAR 2021/09/23 10:53 UTC NOAA

BLYTHEVILLE MUNICIPAL AIRPORT , AR, United States (KHKA) 35-56N 89-50W 78M
Sep 23, 2021 - 06:53 AM EDT / 2021.09.23 1053 UTC
Wind: from the WNW (290 degrees) at 3 MPH (3 KT):0
Visibility: 10 mile(s):0
Sky conditions: clear
Temperature: 50.0 F (10.0 C)
Dew Point: 45.0 F (7.2 C)
Relative Humidity: 82%
Pressure (altimeter): 30.1 in. Hg (1019 hPa)
ob: KHKA 231053Z AUTO 29003KT 10SM CLR 10/07 A3010 RMK AO2 SLP192 T01000072
cycle: 11

Station Type Date Time Source
KHKA TAF UTC NOAA

Error!

Example: see airport list